sensor_id;sensor_type;location;lat;lon;timestamp;P1;durP1;ratioP1;P2;durP2;ratioP2
51030;SDS011;37058;41.442;23.240;2023-05-07T00:00:38;5.43;;;3.65;;
51030;SDS011;37058;41.442;23.240;2023-05-07T00:03:05;5.05;;;3.45;;
51030;SDS011;37058;41.442;23.240;2023-05-07T00:05:31;4.80;;;3.92;;
51030;SDS011;37058;41.442;23.240;2023-05-07T00:07:57;8.77;;;3.95;;
51030;SDS011;37058;41.442;23.240;2023-05-07T00:10:23;6.32;;;4.47;;
51030;SDS011;37058;41.442;23.240;2023-05-07T00:12:50;5.47;;;4.07;;
51030;SDS011;37058;41.442;23.240;2023-05-07T00:15:16;4.78;;;3.65;;
51030;SDS011;37058;41.442;23.240;2023-05-07T00:17:42;6.20;;;4.13;;
51030;SDS011;37058;41.442;23.240;2023-05-07T00:20:08;9.00;;;5.57;;
51030;SDS011;37058;41.442;23.240;2023-05-07T00:22:34;5.22;;;3.70;;
51030;SDS011;37058;41.442;23.240;2023-05-07T00:25:00;6.97;;;4.07;;
51030;SDS011;37058;41.442;23.240;2023-05-07T00:27:26;7.80;;;4.22;;
51030;SDS011;37058;41.442;23.240;2023-05-07T00:29:52;5.82;;;4.25;;
51030;SDS011;37058;41.442;23.240;2023-05-07T00:32:17;5.72;;;3.83;;
51030;SDS011;37058;41.442;23.240;2023-05-07T00:34:43;9.57;;;4.47;;
51030;SDS011;37058;41.442;23.240;2023-05-07T00:37:09;4.93;;;3.78;;
51030;SDS011;37058;41.442;23.240;2023-05-07T00:39:36;4.95;;;3.67;;
51030;SDS011;37058;41.442;23.240;2023-05-07T00:42:03;7.90;;;4.20;;
51030;SDS011;37058;41.442;23.240;2023-05-07T00:44:29;8.93;;;4.20;;
51030;SDS011;37058;41.442;23.240;2023-05-07T00:46:55;4.70;;;3.85;;
51030;SDS011;37058;41.442;23.240;2023-05-07T00:49:23;6.25;;;3.88;;
51030;SDS011;37058;41.442;23.240;2023-05-07T00:51:55;7.97;;;3.95;;
51030;SDS011;37058;41.442;23.240;2023-05-07T00:54:21;7.88;;;4.07;;
51030;SDS011;37058;41.442;23.240;2023-05-07T00:56:47;7.00;;;4.07;;
51030;SDS011;37058;41.442;23.240;2023-05-07T00:59:13;5.40;;;4.10;;
51030;SDS011;37058;41.442;23.240;2023-05-07T01:01:39;5.15;;;3.95;;
51030;SDS011;37058;41.442;23.240;2023-05-07T01:04:05;5.05;;;3.95;;
51030;SDS011;37058;41.442;23.240;2023-05-07T01:06:31;6.25;;;4.20;;
51030;SDS011;37058;41.442;23.240;2023-05-07T01:08:58;5.72;;;4.20;;
51030;SDS011;37058;41.442;23.240;2023-05-07T01:11:25;7.68;;;4.90;;
51030;SDS011;37058;41.442;23.240;2023-05-07T01:13:51;7.80;;;4.70;;
51030;SDS011;37058;41.442;23.240;2023-05-07T01:16:18;9.48;;;4.93;;
51030;SDS011;37058;41.442;23.240;2023-05-07T01:18:44;7.10;;;4.25;;
51030;SDS011;37058;41.442;23.240;2023-05-07T01:21:13;6.95;;;5.05;;
51030;SDS011;37058;41.442;23.240;2023-05-07T01:23:42;8.05;;;4.32;;
51030;SDS011;37058;41.442;23.240;2023-05-07T01:26:10;9.30;;;4.45;;
51030;SDS011;37058;41.442;23.240;2023-05-07T01:28:36;5.70;;;3.97;;
51030;SDS011;37058;41.442;23.240;2023-05-07T01:31:02;6.22;;;4.05;;
51030;SDS011;37058;41.442;23.240;2023-05-07T01:33:31;7.47;;;4.37;;
51030;SDS011;37058;41.442;23.240;2023-05-07T01:36:00;7.88;;;5.00;;
51030;SDS011;37058;41.442;23.240;2023-05-07T01:38:28;10.30;;;6.05;;
51030;SDS011;37058;41.442;23.240;2023-05-07T01:40:55;6.15;;;4.18;;
51030;SDS011;37058;41.442;23.240;2023-05-07T01:43:22;7.05;;;4.10;;
51030;SDS011;37058;41.442;23.240;2023-05-07T01:45:48;7.57;;;4.13;;
51030;SDS011;37058;41.442;23.240;2023-05-07T01:48:15;5.37;;;3.93;;
51030;SDS011;37058;41.442;23.240;2023-05-07T01:50:44;5.88;;;4.45;;
51030;SDS011;37058;41.442;23.240;2023-05-07T01:53:10;6.45;;;4.10;;
51030;SDS011;37058;41.442;23.240;2023-05-07T01:55:36;5.88;;;4.13;;
51030;SDS011;37058;41.442;23.240;2023-05-07T01:58:02;5.53;;;4.30;;
51030;SDS011;37058;41.442;23.240;2023-05-07T02:00:28;8.77;;;4.43;;
51030;SDS011;37058;41.442;23.240;2023-05-07T02:02:55;5.15;;;3.88;;
51030;SDS011;37058;41.442;23.240;2023-05-07T02:05:22;7.53;;;4.03;;
51030;SDS011;37058;41.442;23.240;2023-05-07T02:07:49;6.73;;;4.13;;
51030;SDS011;37058;41.442;23.240;2023-05-07T02:10:14;5.47;;;3.70;;
51030;SDS011;37058;41.442;23.240;2023-05-07T02:12:40;8.30;;;3.50;;
51030;SDS011;37058;41.442;23.240;2023-05-07T02:15:07;4.43;;;3.73;;
51030;SDS011;37058;41.442;23.240;2023-05-07T02:17:34;7.93;;;3.43;;
51030;SDS011;37058;41.442;23.240;2023-05-07T02:20:00;5.63;;;3.90;;
51030;SDS011;37058;41.442;23.240;2023-05-07T02:22:26;5.10;;;3.40;;
51030;SDS011;37058;41.442;23.240;2023-05-07T02:24:52;6.50;;;4.07;;
51030;SDS011;37058;41.442;23.240;2023-05-07T02:27:18;6.73;;;4.57;;
51030;SDS011;37058;41.442;23.240;2023-05-07T02:29:43;5.13;;;4.00;;
51030;SDS011;37058;41.442;23.240;2023-05-07T02:32:09;5.77;;;3.93;;
51030;SDS011;37058;41.442;23.240;2023-05-07T02:34:36;5.77;;;4.50;;
51030;SDS011;37058;41.442;23.240;2023-05-07T02:37:02;7.93;;;4.63;;
51030;SDS011;37058;41.442;23.240;2023-05-07T02:39:28;7.63;;;3.53;;
51030;SDS011;37058;41.442;23.240;2023-05-07T02:41:53;12.73;;;4.10;;
51030;SDS011;37058;41.442;23.240;2023-05-07T02:44:19;9.67;;;3.80;;
51030;SDS011;37058;41.442;23.240;2023-05-07T02:46:45;7.57;;;3.93;;
51030;SDS011;37058;41.442;23.240;2023-05-07T02:49:11;5.63;;;4.43;;
51030;SDS011;37058;41.442;23.240;2023-05-07T02:51:37;6.70;;;6.00;;
51030;SDS011;37058;41.442;23.240;2023-05-07T02:54:03;6.97;;;4.63;;
51030;SDS011;37058;41.442;23.240;2023-05-07T02:56:29;6.67;;;5.07;;
51030;SDS011;37058;41.442;23.240;2023-05-07T02:58:55;7.67;;;4.70;;
51030;SDS011;37058;41.442;23.240;2023-05-07T03:01:21;8.40;;;4.90;;
51030;SDS011;37058;41.442;23.240;2023-05-07T03:03:47;6.17;;;4.23;;
51030;SDS011;37058;41.442;23.240;2023-05-07T03:06:13;8.13;;;4.07;;
51030;SDS011;37058;41.442;23.240;2023-05-07T03:08:39;6.17;;;3.93;;
51030;SDS011;37058;41.442;23.240;2023-05-07T03:11:05;6.70;;;5.97;;
51030;SDS011;37058;41.442;23.240;2023-05-07T03:13:31;9.87;;;7.20;;
51030;SDS011;37058;41.442;23.240;2023-05-07T03:15:57;11.30;;;6.90;;
51030;SDS011;37058;41.442;23.240;2023-05-07T03:18:23;16.20;;;10.60;;
51030;SDS011;37058;41.442;23.240;2023-05-07T03:20:49;6.70;;;5.67;;
51030;SDS011;37058;41.442;23.240;2023-05-07T03:23:14;6.23;;;4.90;;
51030;SDS011;37058;41.442;23.240;2023-05-07T03:25:40;6.17;;;4.27;;
51030;SDS011;37058;41.442;23.240;2023-05-07T03:28:06;5.27;;;4.77;;
51030;SDS011;37058;41.442;23.240;2023-05-07T03:30:32;12.20;;;4.90;;
51030;SDS011;37058;41.442;23.240;2023-05-07T03:32:58;7.43;;;4.47;;
51030;SDS011;37058;41.442;23.240;2023-05-07T03:35:23;7.00;;;4.80;;
51030;SDS011;37058;41.442;23.240;2023-05-07T03:37:49;6.33;;;4.90;;
51030;SDS011;37058;41.442;23.240;2023-05-07T03:40:15;6.40;;;5.23;;
51030;SDS011;37058;41.442;23.240;2023-05-07T03:42:41;9.00;;;5.27;;
51030;SDS011;37058;41.442;23.240;2023-05-07T03:45:07;7.40;;;5.20;;
51030;SDS011;37058;41.442;23.240;2023-05-07T03:47:34;5.17;;;4.17;;
51030;SDS011;37058;41.442;23.240;2023-05-07T03:49:59;6.60;;;5.27;;
51030;SDS011;37058;41.442;23.240;2023-05-07T03:52:25;6.60;;;5.57;;
51030;SDS011;37058;41.442;23.240;2023-05-07T03:54:54;6.17;;;5.47;;
51030;SDS011;37058;41.442;23.240;2023-05-07T03:57:20;5.70;;;4.67;;
51030;SDS011;37058;41.442;23.240;2023-05-07T03:59:46;9.77;;;4.80;;
51030;SDS011;37058;41.442;23.240;2023-05-07T04:02:12;6.87;;;5.20;;
51030;SDS011;37058;41.442;23.240;2023-05-07T04:04:38;7.13;;;4.37;;
51030;SDS011;37058;41.442;23.240;2023-05-07T04:07:03;8.03;;;4.40;;
51030;SDS011;37058;41.442;23.240;2023-05-07T04:09:29;7.07;;;5.03;;
51030;SDS011;37058;41.442;23.240;2023-05-07T04:11:55;8.20;;;4.23;;
51030;SDS011;37058;41.442;23.240;2023-05-07T04:14:21;4.60;;;3.30;;
51030;SDS011;37058;41.442;23.240;2023-05-07T04:16:47;8.47;;;3.93;;
51030;SDS011;37058;41.442;23.240;2023-05-07T04:19:13;5.23;;;3.80;;
51030;SDS011;37058;41.442;23.240;2023-05-07T04:21:39;5.03;;;3.73;;
51030;SDS011;37058;41.442;23.240;2023-05-07T04:24:05;5.83;;;3.70;;
51030;SDS011;37058;41.442;23.240;2023-05-07T04:26:31;5.23;;;4.00;;
51030;SDS011;37058;41.442;23.240;2023-05-07T04:28:57;9.30;;;4.20;;
51030;SDS011;37058;41.442;23.240;2023-05-07T04:31:24;6.83;;;4.57;;
51030;SDS011;37058;41.442;23.240;2023-05-07T04:33:50;5.93;;;4.27;;
51030;SDS011;37058;41.442;23.240;2023-05-07T04:36:16;5.78;;;3.83;;
51030;SDS011;37058;41.442;23.240;2023-05-07T04:38:42;6.88;;;4.28;;
51030;SDS011;37058;41.442;23.240;2023-05-07T04:41:08;13.63;;;4.22;;
51030;SDS011;37058;41.442;23.240;2023-05-07T04:43:34;6.25;;;3.72;;
51030;SDS011;37058;41.442;23.240;2023-05-07T04:46:00;4.93;;;3.50;;
51030;SDS011;37058;41.442;23.240;2023-05-07T04:48:26;5.80;;;3.78;;
51030;SDS011;37058;41.442;23.240;2023-05-07T04:50:53;7.32;;;3.60;;
51030;SDS011;37058;41.442;23.240;2023-05-07T04:53:19;6.25;;;3.88;;
51030;SDS011;37058;41.442;23.240;2023-05-07T04:55:46;5.13;;;3.00;;
51030;SDS011;37058;41.442;23.240;2023-05-07T04:58:12;5.15;;;3.83;;
51030;SDS011;37058;41.442;23.240;2023-05-07T05:00:39;5.07;;;3.75;;
51030;SDS011;37058;41.442;23.240;2023-05-07T05:03:06;4.97;;;3.28;;
51030;SDS011;37058;41.442;23.240;2023-05-07T05:05:32;5.05;;;3.45;;
51030;SDS011;37058;41.442;23.240;2023-05-07T05:07:58;4.97;;;3.80;;
51030;SDS011;37058;41.442;23.240;2023-05-07T05:10:24;4.28;;;3.20;;
51030;SDS011;37058;41.442;23.240;2023-05-07T05:12:50;11.63;;;4.00;;
51030;SDS011;37058;41.442;23.240;2023-05-07T05:15:16;5.45;;;3.72;;
51030;SDS011;37058;41.442;23.240;2023-05-07T05:17:42;5.88;;;3.88;;
51030;SDS011;37058;41.442;23.240;2023-05-07T05:20:08;11.00;;;3.95;;
51030;SDS011;37058;41.442;23.240;2023-05-07T05:22:35;5.13;;;4.00;;
51030;SDS011;37058;41.442;23.240;2023-05-07T05:25:01;5.70;;;4.30;;
51030;SDS011;37058;41.442;23.240;2023-05-07T05:27:28;7.72;;;4.00;;
51030;SDS011;37058;41.442;23.240;2023-05-07T05:29:54;5.53;;;3.97;;
51030;SDS011;37058;41.442;23.240;2023-05-07T05:32:20;6.68;;;3.88;;
51030;SDS011;37058;41.442;23.240;2023-05-07T05:34:47;5.25;;;3.97;;
51030;SDS011;37058;41.442;23.240;2023-05-07T05:37:13;5.00;;;3.97;;
51030;SDS011;37058;41.442;23.240;2023-05-07T05:39:39;6.82;;;3.28;;
51030;SDS011;37058;41.442;23.240;2023-05-07T05:42:05;5.90;;;3.72;;
51030;SDS011;37058;41.442;23.240;2023-05-07T05:44:30;4.65;;;3.90;;
51030;SDS011;37058;41.442;23.240;2023-05-07T05:46:56;6.53;;;4.07;;
51030;SDS011;37058;41.442;23.240;2023-05-07T05:49:24;67.90;;;8.77;;
51030;SDS011;37058;41.442;23.240;2023-05-07T05:51:50;5.75;;;3.83;;
51030;SDS011;37058;41.442;23.240;2023-05-07T05:54:16;5.22;;;3.92;;
51030;SDS011;37058;41.442;23.240;2023-05-07T05:56:42;4.90;;;3.40;;
51030;SDS011;37058;41.442;23.240;2023-05-07T05:59:08;7.25;;;3.67;;
51030;SDS011;37058;41.442;23.240;2023-05-07T06:01:34;7.90;;;3.95;;
51030;SDS011;37058;41.442;23.240;2023-05-07T06:04:00;17.75;;;4.32;;
51030;SDS011;37058;41.442;23.240;2023-05-07T06:06:26;9.50;;;3.55;;
51030;SDS011;37058;41.442;23.240;2023-05-07T06:08:52;4.40;;;3.80;;
51030;SDS011;37058;41.442;23.240;2023-05-07T06:11:18;13.02;;;3.45;;
51030;SDS011;37058;41.442;23.240;2023-05-07T06:13:44;11.07;;;3.97;;
51030;SDS011;37058;41.442;23.240;2023-05-07T06:16:10;6.85;;;3.55;;
51030;SDS011;37058;41.442;23.240;2023-05-07T06:18:36;11.07;;;3.53;;
51030;SDS011;37058;41.442;23.240;2023-05-07T06:21:02;4.53;;;3.40;;
51030;SDS011;37058;41.442;23.240;2023-05-07T06:23:28;5.05;;;3.42;;
51030;SDS011;37058;41.442;23.240;2023-05-07T06:25:54;10.07;;;3.30;;
51030;SDS011;37058;41.442;23.240;2023-05-07T06:28:20;5.15;;;3.55;;
51030;SDS011;37058;41.442;23.240;2023-05-07T06:30:45;7.78;;;3.67;;
51030;SDS011;37058;41.442;23.240;2023-05-07T06:33:12;5.05;;;3.10;;
51030;SDS011;37058;41.442;23.240;2023-05-07T06:35:38;5.57;;;2.85;;
51030;SDS011;37058;41.442;23.240;2023-05-07T06:38:03;4.72;;;3.00;;
51030;SDS011;37058;41.442;23.240;2023-05-07T06:40:30;5.93;;;3.30;;
51030;SDS011;37058;41.442;23.240;2023-05-07T06:42:55;4.93;;;3.42;;
51030;SDS011;37058;41.442;23.240;2023-05-07T06:45:21;4.25;;;3.28;;
51030;SDS011;37058;41.442;23.240;2023-05-07T06:47:47;5.40;;;2.90;;
51030;SDS011;37058;41.442;23.240;2023-05-07T06:50:13;5.78;;;3.03;;
51030;SDS011;37058;41.442;23.240;2023-05-07T06:52:41;8.50;;;5.65;;
51030;SDS011;37058;41.442;23.240;2023-05-07T06:55:08;6.20;;;3.25;;
51030;SDS011;37058;41.442;23.240;2023-05-07T06:57:34;7.68;;;3.38;;
51030;SDS011;37058;41.442;23.240;2023-05-07T07:00:00;10.50;;;4.03;;
51030;SDS011;37058;41.442;23.240;2023-05-07T07:02:26;10.73;;;3.25;;
51030;SDS011;37058;41.442;23.240;2023-05-07T07:04:51;6.60;;;3.72;;
51030;SDS011;37058;41.442;23.240;2023-05-07T07:07:17;5.05;;;3.15;;
51030;SDS011;37058;41.442;23.240;2023-05-07T07:09:43;5.30;;;3.55;;
51030;SDS011;37058;41.442;23.240;2023-05-07T07:12:09;4.57;;;2.88;;
51030;SDS011;37058;41.442;23.240;2023-05-07T07:14:35;4.43;;;3.33;;
51030;SDS011;37058;41.442;23.240;2023-05-07T07:17:01;8.30;;;3.55;;
51030;SDS011;37058;41.442;23.240;2023-05-07T07:19:27;7.70;;;3.78;;
51030;SDS011;37058;41.442;23.240;2023-05-07T07:21:53;6.15;;;3.30;;
51030;SDS011;37058;41.442;23.240;2023-05-07T07:24:19;6.28;;;3.83;;
51030;SDS011;37058;41.442;23.240;2023-05-07T07:26:46;18.30;;;3.95;;
51030;SDS011;37058;41.442;23.240;2023-05-07T07:29:12;4.85;;;3.33;;
51030;SDS011;37058;41.442;23.240;2023-05-07T07:31:38;5.85;;;3.13;;
51030;SDS011;37058;41.442;23.240;2023-05-07T07:34:04;6.22;;;3.28;;
51030;SDS011;37058;41.442;23.240;2023-05-07T07:36:30;6.32;;;3.83;;
51030;SDS011;37058;41.442;23.240;2023-05-07T07:38:56;7.15;;;3.63;;
51030;SDS011;37058;41.442;23.240;2023-05-07T07:41:22;6.32;;;3.35;;
51030;SDS011;37058;41.442;23.240;2023-05-07T07:43:47;4.97;;;3.22;;
51030;SDS011;37058;41.442;23.240;2023-05-07T07:46:13;4.05;;;3.00;;
51030;SDS011;37058;41.442;23.240;2023-05-07T07:48:39;5.57;;;3.17;;
51030;SDS011;37058;41.442;23.240;2023-05-07T07:51:05;9.23;;;3.08;;
51030;SDS011;37058;41.442;23.240;2023-05-07T07:53:31;6.22;;;3.85;;
51030;SDS011;37058;41.442;23.240;2023-05-07T07:55:57;6.65;;;3.17;;
51030;SDS011;37058;41.442;23.240;2023-05-07T07:58:23;5.40;;;3.10;;
51030;SDS011;37058;41.442;23.240;2023-05-07T08:00:49;4.60;;;2.90;;
51030;SDS011;37058;41.442;23.240;2023-05-07T08:03:16;4.97;;;2.88;;
51030;SDS011;37058;41.442;23.240;2023-05-07T08:05:42;3.70;;;2.53;;
51030;SDS011;37058;41.442;23.240;2023-05-07T08:08:08;5.45;;;3.20;;
51030;SDS011;37058;41.442;23.240;2023-05-07T08:10:34;3.25;;;2.13;;
51030;SDS011;37058;41.442;23.240;2023-05-07T08:13:03;6.47;;;3.00;;
51030;SDS011;37058;41.442;23.240;2023-05-07T08:15:30;6.25;;;2.60;;
51030;SDS011;37058;41.442;23.240;2023-05-07T08:17:56;5.78;;;2.75;;
51030;SDS011;37058;41.442;23.240;2023-05-07T08:20:25;6.33;;;3.17;;
51030;SDS011;37058;41.442;23.240;2023-05-07T08:22:51;4.07;;;2.40;;
51030;SDS011;37058;41.442;23.240;2023-05-07T08:25:17;8.10;;;3.22;;
51030;SDS011;37058;41.442;23.240;2023-05-07T08:27:42;8.93;;;2.65;;
51030;SDS011;37058;41.442;23.240;2023-05-07T08:30:09;7.35;;;2.42;;
51030;SDS011;37058;41.442;23.240;2023-05-07T08:32:36;9.20;;;3.00;;
51030;SDS011;37058;41.442;23.240;2023-05-07T08:35:02;5.55;;;2.35;;
51030;SDS011;37058;41.442;23.240;2023-05-07T08:37:28;8.52;;;2.85;;
51030;SDS011;37058;41.442;23.240;2023-05-07T08:39:54;5.32;;;2.78;;
51030;SDS011;37058;41.442;23.240;2023-05-07T08:42:20;22.75;;;3.35;;
51030;SDS011;37058;41.442;23.240;2023-05-07T08:44:50;5.68;;;2.63;;
51030;SDS011;37058;41.442;23.240;2023-05-07T08:47:21;7.70;;;2.50;;
51030;SDS011;37058;41.442;23.240;2023-05-07T08:49:49;10.38;;;2.95;;
51030;SDS011;37058;41.442;23.240;2023-05-07T08:52:16;5.47;;;2.42;;
51030;SDS011;37058;41.442;23.240;2023-05-07T08:54:42;5.53;;;3.08;;
51030;SDS011;37058;41.442;23.240;2023-05-07T08:57:08;5.43;;;3.47;;
51030;SDS011;37058;41.442;23.240;2023-05-07T08:59:34;3.38;;;2.40;;
51030;SDS011;37058;41.442;23.240;2023-05-07T09:02:01;5.68;;;3.03;;
51030;SDS011;37058;41.442;23.240;2023-05-07T09:04:27;4.18;;;2.08;;
51030;SDS011;37058;41.442;23.240;2023-05-07T09:06:53;5.55;;;3.03;;
51030;SDS011;37058;41.442;23.240;2023-05-07T09:09:21;7.07;;;4.00;;
51030;SDS011;37058;41.442;23.240;2023-05-07T09:11:47;9.07;;;2.75;;
51030;SDS011;37058;41.442;23.240;2023-05-07T09:14:13;11.18;;;2.67;;
51030;SDS011;37058;41.442;23.240;2023-05-07T09:16:39;4.90;;;2.30;;
51030;SDS011;37058;41.442;23.240;2023-05-07T09:19:05;4.57;;;2.20;;
51030;SDS011;37058;41.442;23.240;2023-05-07T09:21:31;7.13;;;3.13;;
51030;SDS011;37058;41.442;23.240;2023-05-07T09:23:56;4.25;;;2.72;;
51030;SDS011;37058;41.442;23.240;2023-05-07T09:26:23;4.50;;;2.13;;
51030;SDS011;37058;41.442;23.240;2023-05-07T09:28:50;3.88;;;2.80;;
51030;SDS011;37058;41.442;23.240;2023-05-07T09:31:17;5.85;;;2.75;;
51030;SDS011;37058;41.442;23.240;2023-05-07T09:33:43;6.38;;;2.40;;
51030;SDS011;37058;41.442;23.240;2023-05-07T09:36:09;5.93;;;2.45;;
51030;SDS011;37058;41.442;23.240;2023-05-07T09:38:36;5.32;;;2.60;;
51030;SDS011;37058;41.442;23.240;2023-05-07T09:41:06;3.70;;;1.95;;
51030;SDS011;37058;41.442;23.240;2023-05-07T09:43:35;6.57;;;2.45;;
51030;SDS011;37058;41.442;23.240;2023-05-07T09:46:03;3.65;;;2.40;;
51030;SDS011;37058;41.442;23.240;2023-05-07T09:48:40;3.50;;;2.22;;
51030;SDS011;37058;41.442;23.240;2023-05-07T09:51:30;5.63;;;2.22;;
51030;SDS011;37058;41.442;23.240;2023-05-07T09:53:59;6.95;;;2.20;;
51030;SDS011;37058;41.442;23.240;2023-05-07T09:56:29;3.10;;;2.05;;
51030;SDS011;37058;41.442;23.240;2023-05-07T09:58:56;3.97;;;2.25;;
51030;SDS011;37058;41.442;23.240;2023-05-07T10:01:26;9.95;;;2.50;;
51030;SDS011;37058;41.442;23.240;2023-05-07T10:03:53;6.68;;;2.33;;
51030;SDS011;37058;41.442;23.240;2023-05-07T10:06:20;4.45;;;2.70;;
51030;SDS011;37058;41.442;23.240;2023-05-07T10:08:47;8.68;;;3.33;;
51030;SDS011;37058;41.442;23.240;2023-05-07T10:11:14;10.70;;;2.88;;
51030;SDS011;37058;41.442;23.240;2023-05-07T10:13:41;4.05;;;2.72;;
51030;SDS011;37058;41.442;23.240;2023-05-07T10:16:08;3.55;;;2.15;;
51030;SDS011;37058;41.442;23.240;2023-05-07T10:18:34;7.07;;;2.40;;
51030;SDS011;37058;41.442;23.240;2023-05-07T10:21:04;3.92;;;2.20;;
51030;SDS011;37058;41.442;23.240;2023-05-07T10:24:04;3.88;;;2.03;;
51030;SDS011;37058;41.442;23.240;2023-05-07T10:26:38;3.55;;;2.00;;
51030;SDS011;37058;41.442;23.240;2023-05-07T10:34:57;4.95;;;2.88;;
51030;SDS011;37058;41.442;23.240;2023-05-07T10:37:28;7.00;;;2.60;;
51030;SDS011;37058;41.442;23.240;2023-05-07T10:39:55;3.80;;;2.33;;
51030;SDS011;37058;41.442;23.240;2023-05-07T10:42:22;3.53;;;2.30;;
51030;SDS011;37058;41.442;23.240;2023-05-07T10:44:48;3.53;;;2.30;;
51030;SDS011;37058;41.442;23.240;2023-05-07T10:47:15;3.88;;;2.55;;
51030;SDS011;37058;41.442;23.240;2023-05-07T10:54:39;12.98;;;2.53;;
51030;SDS011;37058;41.442;23.240;2023-05-07T11:00:01;7.90;;;2.80;;
51030;SDS011;37058;41.442;23.240;2023-05-07T11:05:25;4.97;;;2.55;;
51030;SDS011;37058;41.442;23.240;2023-05-07T11:08:03;4.78;;;2.83;;
51030;SDS011;37058;41.442;23.240;2023-05-07T11:13:19;8.57;;;2.70;;
51030;SDS011;37058;41.442;23.240;2023-05-07T11:16:20;5.35;;;2.67;;
51030;SDS011;37058;41.442;23.240;2023-05-07T11:18:49;7.22;;;2.53;;
51030;SDS011;37058;41.442;23.240;2023-05-07T11:21:33;3.97;;;2.60;;
51030;SDS011;37058;41.442;23.240;2023-05-07T11:24:04;4.05;;;2.40;;
51030;SDS011;37058;41.442;23.240;2023-05-07T11:26:41;3.78;;;2.15;;
51030;SDS011;37058;41.442;23.240;2023-05-07T11:29:17;3.33;;;2.63;;
51030;SDS011;37058;41.442;23.240;2023-05-07T11:31:49;3.63;;;2.72;;
51030;SDS011;37058;41.442;23.240;2023-05-07T11:34:23;6.20;;;2.45;;
51030;SDS011;37058;41.442;23.240;2023-05-07T11:36:50;7.38;;;2.83;;
51030;SDS011;37058;41.442;23.240;2023-05-07T11:39:31;3.78;;;2.17;;
51030;SDS011;37058;41.442;23.240;2023-05-07T11:42:01;3.67;;;2.53;;
51030;SDS011;37058;41.442;23.240;2023-05-07T11:44:43;3.30;;;2.53;;
51030;SDS011;37058;41.442;23.240;2023-05-07T11:47:11;5.80;;;2.78;;
51030;SDS011;37058;41.442;23.240;2023-05-07T11:49:42;9.13;;;3.38;;
51030;SDS011;37058;41.442;23.240;2023-05-07T11:52:09;4.32;;;2.80;;
51030;SDS011;37058;41.442;23.240;2023-05-07T11:54:37;6.63;;;4.15;;
51030;SDS011;37058;41.442;23.240;2023-05-07T11:57:03;3.83;;;2.58;;
51030;SDS011;37058;41.442;23.240;2023-05-07T11:59:30;13.68;;;2.97;;
51030;SDS011;37058;41.442;23.240;2023-05-07T12:02:05;3.88;;;2.65;;
51030;SDS011;37058;41.442;23.240;2023-05-07T12:04:33;5.38;;;2.58;;
51030;SDS011;37058;41.442;23.240;2023-05-07T12:06:59;5.13;;;2.40;;
51030;SDS011;37058;41.442;23.240;2023-05-07T12:09:25;6.80;;;2.80;;
51030;SDS011;37058;41.442;23.240;2023-05-07T12:11:51;3.13;;;2.13;;
51030;SDS011;37058;41.442;23.240;2023-05-07T12:14:18;3.08;;;2.15;;
51030;SDS011;37058;41.442;23.240;2023-05-07T12:16:44;5.65;;;2.45;;
51030;SDS011;37058;41.442;23.240;2023-05-07T12:19:10;6.50;;;2.72;;
51030;SDS011;37058;41.442;23.240;2023-05-07T12:21:40;4.70;;;2.42;;
51030;SDS011;37058;41.442;23.240;2023-05-07T12:24:06;9.50;;;2.30;;
51030;SDS011;37058;41.442;23.240;2023-05-07T12:26:37;3.72;;;2.72;;
51030;SDS011;37058;41.442;23.240;2023-05-07T12:29:05;3.28;;;2.33;;
51030;SDS011;37058;41.442;23.240;2023-05-07T12:31:32;3.20;;;2.20;;
51030;SDS011;37058;41.442;23.240;2023-05-07T12:33:58;5.93;;;2.45;;
51030;SDS011;37058;41.442;23.240;2023-05-07T12:36:23;4.93;;;2.63;;
51030;SDS011;37058;41.442;23.240;2023-05-07T12:38:50;5.05;;;2.45;;
51030;SDS011;37058;41.442;23.240;2023-05-07T12:41:16;26.83;;;4.82;;
51030;SDS011;37058;41.442;23.240;2023-05-07T12:43:43;3.92;;;2.88;;
51030;SDS011;37058;41.442;23.240;2023-05-07T12:46:11;6.75;;;2.10;;
51030;SDS011;37058;41.442;23.240;2023-05-07T12:48:45;3.50;;;2.70;;
51030;SDS011;37058;41.442;23.240;2023-05-07T12:53:42;5.57;;;2.30;;
51030;SDS011;37058;41.442;23.240;2023-05-07T12:56:08;4.25;;;2.20;;
51030;SDS011;37058;41.442;23.240;2023-05-07T12:58:35;3.05;;;2.15;;
51030;SDS011;37058;41.442;23.240;2023-05-07T13:01:04;3.78;;;2.83;;
51030;SDS011;37058;41.442;23.240;2023-05-07T13:03:36;3.75;;;2.05;;
51030;SDS011;37058;41.442;23.240;2023-05-07T13:06:06;5.60;;;2.40;;
51030;SDS011;37058;41.442;23.240;2023-05-07T13:08:38;4.13;;;2.53;;
51030;SDS011;37058;41.442;23.240;2023-05-07T13:11:08;3.58;;;2.33;;
51030;SDS011;37058;41.442;23.240;2023-05-07T13:13:36;4.22;;;2.50;;
51030;SDS011;37058;41.442;23.240;2023-05-07T13:18:33;4.43;;;2.35;;
51030;SDS011;37058;41.442;23.240;2023-05-07T13:21:00;4.85;;;2.38;;
51030;SDS011;37058;41.442;23.240;2023-05-07T13:23:26;4.13;;;2.67;;
51030;SDS011;37058;41.442;23.240;2023-05-07T13:25:53;5.00;;;2.45;;
51030;SDS011;37058;41.442;23.240;2023-05-07T13:28:20;3.08;;;2.10;;
51030;SDS011;37058;41.442;23.240;2023-05-07T13:30:47;4.07;;;2.25;;
51030;SDS011;37058;41.442;23.240;2023-05-07T13:33:13;9.07;;;2.90;;
51030;SDS011;37058;41.442;23.240;2023-05-07T13:35:41;6.28;;;2.58;;
51030;SDS011;37058;41.442;23.240;2023-05-07T13:38:06;4.15;;;2.63;;
51030;SDS011;37058;41.442;23.240;2023-05-07T13:40:33;5.43;;;2.60;;
51030;SDS011;37058;41.442;23.240;2023-05-07T13:42:58;10.10;;;2.60;;
51030;SDS011;37058;41.442;23.240;2023-05-07T13:45:27;4.15;;;2.50;;
51030;SDS011;37058;41.442;23.240;2023-05-07T13:47:54;4.45;;;2.70;;
51030;SDS011;37058;41.442;23.240;2023-05-07T13:50:21;3.92;;;2.90;;
51030;SDS011;37058;41.442;23.240;2023-05-07T13:52:47;3.55;;;2.60;;
51030;SDS011;37058;41.442;23.240;2023-05-07T13:55:23;3.50;;;2.50;;
51030;SDS011;37058;41.442;23.240;2023-05-07T13:57:56;3.20;;;2.60;;
51030;SDS011;37058;41.442;23.240;2023-05-07T14:00:28;5.20;;;2.50;;
51030;SDS011;37058;41.442;23.240;2023-05-07T14:02:55;3.83;;;2.80;;
51030;SDS011;37058;41.442;23.240;2023-05-07T14:05:21;3.92;;;2.90;;
51030;SDS011;37058;41.442;23.240;2023-05-07T14:07:53;9.90;;;3.55;;
51030;SDS011;37058;41.442;23.240;2023-05-07T14:10:21;4.82;;;2.60;;
51030;SDS011;37058;41.442;23.240;2023-05-07T14:12:47;7.10;;;2.72;;
51030;SDS011;37058;41.442;23.240;2023-05-07T14:15:13;3.15;;;2.60;;
51030;SDS011;37058;41.442;23.240;2023-05-07T14:17:40;7.28;;;2.83;;
51030;SDS011;37058;41.442;23.240;2023-05-07T14:20:08;5.00;;;2.63;;
51030;SDS011;37058;41.442;23.240;2023-05-07T14:22:35;6.30;;;4.28;;
51030;SDS011;37058;41.442;23.240;2023-05-07T14:25:01;8.95;;;2.80;;
51030;SDS011;37058;41.442;23.240;2023-05-07T14:27:27;8.25;;;2.70;;
51030;SDS011;37058;41.442;23.240;2023-05-07T14:29:54;4.50;;;2.17;;
51030;SDS011;37058;41.442;23.240;2023-05-07T14:32:20;3.75;;;2.55;;
51030;SDS011;37058;41.442;23.240;2023-05-07T14:34:47;4.13;;;3.10;;
51030;SDS011;37058;41.442;23.240;2023-05-07T14:37:13;3.65;;;2.72;;
51030;SDS011;37058;41.442;23.240;2023-05-07T14:39:39;3.83;;;2.58;;
51030;SDS011;37058;41.442;23.240;2023-05-07T14:42:05;4.57;;;2.65;;
51030;SDS011;37058;41.442;23.240;2023-05-07T14:44:33;2.75;;;2.20;;
51030;SDS011;37058;41.442;23.240;2023-05-07T14:47:00;19.42;;;4.38;;
51030;SDS011;37058;41.442;23.240;2023-05-07T14:49:26;5.32;;;2.28;;
51030;SDS011;37058;41.442;23.240;2023-05-07T14:51:52;4.00;;;3.15;;
51030;SDS011;37058;41.442;23.240;2023-05-07T14:54:18;3.75;;;2.60;;
51030;SDS011;37058;41.442;23.240;2023-05-07T14:56:44;4.57;;;2.38;;